North Bellmore, New York
Current Conditions -  °F | °C
As of 3:53 PM on Wednesday 17 Dec 2014 (Local Time) from KFRG Reporting Station
Overcast Overcast  
Wind Chill: 51°   Ceiling: 4200
Heat Index: 51°   Visibility: 10mi
Dew Point: 37°   Wind: 13mph
Humidity: 59%   Direction: 300°WNW
Pressure: 29.81"   Gusts: 22mph
Location:  40.69°N, 73.53°W
Report Text: KFRG 172053Z 30011G19KT 10SM OVC042 11/03 A2981 RMK AO2 SLP095 T01060028 53008
Loading
Personal Weather Stations






























Interactive Weather Map New forecast layout! Learn more

10-Day Weather Forecast

Advertisements
Track Severe Weather on mobile